createdAt,value
2022-12-31T00:01:34.989Z,88.60
2022-12-31T00:04:03.654Z,88.63
2022-12-31T00:06:35.829Z,88.56
2022-12-31T00:09:07.086Z,88.00
2022-12-31T00:11:36.820Z,87.89
2022-12-31T00:14:05.756Z,88.34
2022-12-31T00:16:37.884Z,88.13
2022-12-31T00:19:08.358Z,88.31
2022-12-31T00:21:37.558Z,88.71
2022-12-31T00:24:07.642Z,88.52
2022-12-31T00:26:36.846Z,88.12
2022-12-31T00:29:06.632Z,88.66
2022-12-31T00:31:38.904Z,88.84
2022-12-31T00:34:07.707Z,88.90
2022-12-31T00:36:42.558Z,89.42
2022-12-31T00:39:12.057Z,89.42
2022-12-31T00:41:40.459Z,89.38
2022-12-31T00:44:09.041Z,89.63
2022-12-31T00:49:05.175Z,89.88
2022-12-31T00:51:33.655Z,89.95
2022-12-31T00:54:02.303Z,89.95
2022-12-31T00:56:32.231Z,90.02
2022-12-31T00:59:02.132Z,89.92
2022-12-31T01:01:34.382Z,90.31
2022-12-31T01:04:13.373Z,89.94
2022-12-31T01:06:42.476Z,90.30
2022-12-31T01:09:12.391Z,90.56
2022-12-31T01:11:40.704Z,91.04
2022-12-31T01:14:16.371Z,91.07
2022-12-31T01:16:49.128Z,91.40
2022-12-31T01:19:27.778Z,91.28
2022-12-31T01:21:56.935Z,91.07
2022-12-31T01:24:25.836Z,91.33
2022-12-31T01:26:57.662Z,90.97
2022-12-31T01:29:26.451Z,90.63
2022-12-31T01:31:54.873Z,90.81
2022-12-31T01:34:23.460Z,91.33
2022-12-31T01:36:51.848Z,91.26
2022-12-31T01:39:20.429Z,90.70
2022-12-31T01:41:49.075Z,91.38
2022-12-31T01:44:37.358Z,91.32
2022-12-31T01:47:14.221Z,91.02
2022-12-31T01:49:55.802Z,90.85
2022-12-31T01:52:36.886Z,90.54
2022-12-31T01:55:29.918Z,91.41
2022-12-31T01:58:12.986Z,90.32
2022-12-31T02:00:41.548Z,91.21
2022-12-31T02:03:10.497Z,91.63
2022-12-31T02:05:44.899Z,90.88
2022-12-31T02:08:14.060Z,90.68
2022-12-31T02:10:42.243Z,90.42
2022-12-31T02:13:10.851Z,90.61
2022-12-31T02:16:03.606Z,91.22
2022-12-31T02:18:43.292Z,91.87
2022-12-31T02:21:17.205Z,91.75
2022-12-31T02:24:23.911Z,91.98
2022-12-31T02:27:11.694Z,92.46
2022-12-31T02:30:06.596Z,92.00
2022-12-31T02:33:02.941Z,92.35
2022-12-31T02:35:46.484Z,92.49
2022-12-31T02:38:36.867Z,92.20
2022-12-31T02:41:05.400Z,92.56
2022-12-31T02:43:33.478Z,92.77
2022-12-31T02:46:25.039Z,92.87
2022-12-31T02:49:25.584Z,93.17
2022-12-31T02:52:14.090Z,92.77
2022-12-31T02:55:03.870Z,92.03
2022-12-31T02:57:56.469Z,92.70
2022-12-31T03:00:42.923Z,91.97
2022-12-31T03:03:12.887Z,92.55
2022-12-31T03:05:44.707Z,92.38
2022-12-31T03:08:13.208Z,92.52
2022-12-31T03:10:42.741Z,92.75
2022-12-31T03:13:09.965Z,92.89
2022-12-31T03:15:38.977Z,93.61
2022-12-31T03:18:17.796Z,93.48
2022-12-31T03:21:04.390Z,93.94
2022-12-31T03:23:38.835Z,94.16
2022-12-31T03:26:10.017Z,94.03
2022-12-31T03:28:40.822Z,94.26
2022-12-31T03:31:09.768Z,94.10
2022-12-31T03:33:41.616Z,94.22
2022-12-31T03:36:15.640Z,94.47
2022-12-31T03:38:47.381Z,94.13
2022-12-31T03:41:17.905Z,94.28
2022-12-31T03:43:46.473Z,93.94
2022-12-31T03:46:14.981Z,94.64
2022-12-31T03:48:43.498Z,93.31
2022-12-31T03:51:11.523Z,93.58
2022-12-31T03:53:39.566Z,93.70
2022-12-31T03:56:07.976Z,93.54
2022-12-31T03:58:36.381Z,92.70
2022-12-31T04:01:05.146Z,93.45
2022-12-31T04:03:33.713Z,93.33
2022-12-31T04:06:02.163Z,93.45
2022-12-31T04:08:30.300Z,93.12
2022-12-31T04:10:58.705Z,92.87
2022-12-31T04:13:26.762Z,93.62
2022-12-31T04:15:55.514Z,92.18
2022-12-31T04:18:24.025Z,92.56
2022-12-31T04:20:52.217Z,91.92
2022-12-31T04:23:20.956Z,93.05
2022-12-31T04:25:49.375Z,92.47
2022-12-31T04:28:17.888Z,92.66
2022-12-31T04:30:46.375Z,92.06
2022-12-31T04:33:14.395Z,92.42
2022-12-31T04:35:42.939Z,93.08
2022-12-31T04:38:11.019Z,94.17
2022-12-31T04:40:59.824Z,93.26
2022-12-31T04:43:27.943Z,91.36
2022-12-31T04:45:55.983Z,92.31
2022-12-31T04:48:24.408Z,92.42
2022-12-31T04:50:53.239Z,92.63
2022-12-31T04:53:21.304Z,92.94
2022-12-31T04:55:49.756Z,91.79
2022-12-31T04:58:18.040Z,92.54
2022-12-31T05:00:49.871Z,90.62
2022-12-31T05:03:19.739Z,90.90
2022-12-31T05:05:50.009Z,92.34
2022-12-31T05:08:19.793Z,91.15
2022-12-31T05:10:50.919Z,92.31
2022-12-31T05:13:19.361Z,92.12
2022-12-31T05:15:48.345Z,92.87
2022-12-31T05:18:16.881Z,92.45
2022-12-31T05:20:45.385Z,91.12
2022-12-31T05:23:14.747Z,92.52
2022-12-31T05:25:44.842Z,92.35
2022-12-31T05:28:13.361Z,92.11
2022-12-31T05:30:41.813Z,91.48
2022-12-31T05:33:10.505Z,90.42
2022-12-31T05:35:38.808Z,90.92
2022-12-31T05:38:07.368Z,91.07
2022-12-31T05:40:35.847Z,90.00
2022-12-31T05:43:04.043Z,90.76
2022-12-31T05:45:32.162Z,91.06
2022-12-31T05:48:00.829Z,91.23
2022-12-31T05:50:29.005Z,90.17
2022-12-31T05:52:57.459Z,90.47
2022-12-31T05:55:26.771Z,89.35
2022-12-31T05:57:55.272Z,88.69
2022-12-31T06:00:23.638Z,89.01
2022-12-31T06:02:51.755Z,88.65
2022-12-31T06:05:25.930Z,89.13
2022-12-31T06:07:55.043Z,89.37
2022-12-31T06:10:23.514Z,88.19
2022-12-31T06:12:52.025Z,88.62
2022-12-31T06:15:20.189Z,89.26
2022-12-31T06:17:48.710Z,88.15
2022-12-31T06:20:16.973Z,87.86
2022-12-31T06:22:45.066Z,88.05
2022-12-31T06:25:13.511Z,86.49
2022-12-31T06:27:42.014Z,87.32
2022-12-31T06:30:12.300Z,87.32
2022-12-31T06:32:40.922Z,87.22
2022-12-31T06:35:09.810Z,87.47
2022-12-31T06:37:38.330Z,85.95
2022-12-31T06:40:07.438Z,86.89
2022-12-31T06:42:35.900Z,86.40
2022-12-31T06:45:04.645Z,85.46
2022-12-31T06:47:33.073Z,85.25
2022-12-31T06:50:01.551Z,85.78
2022-12-31T06:52:30.530Z,85.52
2022-12-31T06:54:59.358Z,84.74
2022-12-31T06:57:28.269Z,84.99
2022-12-31T06:59:57.133Z,85.95
2022-12-31T07:02:55.622Z,85.77
2022-12-31T07:05:42.660Z,85.19
2022-12-31T07:08:51.154Z,84.60
2022-12-31T07:11:31.693Z,84.82
2022-12-31T07:14:33.864Z,85.48
2022-12-31T07:17:08.251Z,84.52
2022-12-31T07:20:07.852Z,82.84
2022-12-31T07:22:36.635Z,82.48
2022-12-31T07:25:06.739Z,82.92
2022-12-31T07:27:43.933Z,82.65
2022-12-31T07:30:54.497Z,83.03
2022-12-31T07:34:16.824Z,81.69
2022-12-31T07:37:14.521Z,82.19
2022-12-31T07:40:21.019Z,83.37
2022-12-31T07:43:15.380Z,81.50
2022-12-31T07:46:09.079Z,82.48
2022-12-31T07:48:37.517Z,81.91
2022-12-31T07:51:06.328Z,82.36
2022-12-31T07:53:34.977Z,83.15
2022-12-31T07:56:06.736Z,82.10
2022-12-31T07:58:59.329Z,81.58
2022-12-31T08:02:18.835Z,82.17
2022-12-31T08:05:11.507Z,80.50
2022-12-31T08:08:30.810Z,81.68
2022-12-31T08:11:02.728Z,81.50
2022-12-31T08:13:31.897Z,81.83
2022-12-31T08:16:02.192Z,79.99
2022-12-31T08:18:30.928Z,80.41
2022-12-31T08:21:23.624Z,80.70
2022-12-31T08:24:15.030Z,81.25
2022-12-31T08:26:52.966Z,80.12
2022-12-31T08:30:01.682Z,79.81
2022-12-31T08:33:04.609Z,79.43
2022-12-31T08:36:10.589Z,82.09
2022-12-31T08:38:42.554Z,82.63
2022-12-31T08:41:43.083Z,83.02
2022-12-31T08:45:01.790Z,83.07
2022-12-31T08:47:59.812Z,83.35
2022-12-31T08:50:29.365Z,83.57
2022-12-31T08:52:57.913Z,83.82
2022-12-31T08:55:26.470Z,83.86
2022-12-31T08:58:31.883Z,84.25
2022-12-31T09:01:00.793Z,83.92
2022-12-31T09:03:57.572Z,83.91
2022-12-31T09:06:43.158Z,84.08
2022-12-31T09:10:00.291Z,83.52
2022-12-31T09:12:39.741Z,83.36
2022-12-31T09:15:23.147Z,82.90
2022-12-31T09:17:52.783Z,82.52
2022-12-31T09:20:42.473Z,82.00
2022-12-31T09:23:13.336Z,82.08
2022-12-31T09:25:58.834Z,82.00
2022-12-31T09:28:50.642Z,82.12
2022-12-31T09:32:00.419Z,82.00
2022-12-31T09:34:51.937Z,81.56
2022-12-31T09:37:30.881Z,80.78
2022-12-31T09:40:25.185Z,80.52
2022-12-31T09:42:58.816Z,80.34
2022-12-31T09:46:27.333Z,80.31
2022-12-31T09:49:32.031Z,79.76
2022-12-31T09:52:37.014Z,79.25
2022-12-31T09:55:33.899Z,79.90
2022-12-31T09:58:19.701Z,78.10
2022-12-31T10:00:56.865Z,78.64
2022-12-31T10:04:05.019Z,77.69
2022-12-31T10:06:36.996Z,78.91
2022-12-31T10:09:38.511Z,79.35
2022-12-31T10:12:25.879Z,79.13
2022-12-31T10:15:41.466Z,77.93
2022-12-31T10:18:57.359Z,77.81
2022-12-31T10:21:55.895Z,75.97
2022-12-31T10:24:38.963Z,76.91
2022-12-31T10:27:22.987Z,77.26
2022-12-31T10:30:01.983Z,76.77
2022-12-31T10:32:43.693Z,75.41
2022-12-31T10:35:15.125Z,74.93
2022-12-31T10:38:06.520Z,74.52
2022-12-31T10:41:01.523Z,74.55
2022-12-31T10:44:08.359Z,75.32
2022-12-31T10:47:13.904Z,74.07
2022-12-31T10:50:12.310Z,74.39
2022-12-31T10:53:19.213Z,74.40
2022-12-31T10:56:06.169Z,73.61
2022-12-31T10:58:49.386Z,73.29
2022-12-31T11:01:35.188Z,73.60
2022-12-31T11:04:37.104Z,73.62
2022-12-31T11:07:24.267Z,73.29
2022-12-31T11:09:55.478Z,72.30
2022-12-31T11:13:00.211Z,73.14
2022-12-31T11:15:40.591Z,73.07
2022-12-31T11:18:36.803Z,73.70
2022-12-31T11:21:10.404Z,74.52
2022-12-31T11:24:23.029Z,74.55
2022-12-31T11:27:02.968Z,74.70
2022-12-31T11:29:57.977Z,74.74
2022-12-31T11:32:56.323Z,73.96
2022-12-31T11:35:57.279Z,73.71
2022-12-31T11:38:39.888Z,74.18
2022-12-31T11:41:23.396Z,73.93
2022-12-31T11:44:04.773Z,73.98
2022-12-31T11:47:13.849Z,73.52
2022-12-31T11:50:00.546Z,72.82
2022-12-31T11:52:46.325Z,73.66
2022-12-31T11:55:40.367Z,74.16
2022-12-31T11:58:20.447Z,73.71
2022-12-31T12:01:17.384Z,73.80
2022-12-31T12:03:46.520Z,74.56
2022-12-31T12:06:18.343Z,73.66
2022-12-31T12:08:47.699Z,73.11
2022-12-31T12:11:25.409Z,73.91
2022-12-31T12:13:54.008Z,73.10
2022-12-31T12:16:24.519Z,74.21
2022-12-31T12:19:15.820Z,74.97
2022-12-31T12:21:52.004Z,74.60
2022-12-31T12:24:38.919Z,74.88
2022-12-31T12:27:18.435Z,74.53
2022-12-31T12:29:47.409Z,74.01
2022-12-31T12:32:20.908Z,74.30
2022-12-31T12:34:50.345Z,73.95
2022-12-31T12:37:35.536Z,74.11
2022-12-31T12:40:29.774Z,74.01
2022-12-31T12:43:02.856Z,74.20
2022-12-31T12:45:51.487Z,73.45
2022-12-31T12:48:42.439Z,73.61
2022-12-31T12:51:29.956Z,73.38
2022-12-31T12:54:19.200Z,73.53
2022-12-31T12:57:17.285Z,73.02
2022-12-31T12:59:45.751Z,73.07
2022-12-31T13:03:03.219Z,73.10
2022-12-31T13:05:54.709Z,72.97
2022-12-31T13:08:42.016Z,73.62
2022-12-31T13:11:37.817Z,73.56
2022-12-31T13:14:06.402Z,73.85
2022-12-31T13:16:48.498Z,73.85
2022-12-31T13:19:43.111Z,74.13
2022-12-31T13:22:39.141Z,74.16
2022-12-31T13:25:53.807Z,74.27
2022-12-31T13:28:25.171Z,74.33
2022-12-31T13:31:06.852Z,74.61
2022-12-31T13:33:42.171Z,74.52
2022-12-31T13:36:23.387Z,74.83
2022-12-31T13:38:55.896Z,74.65
2022-12-31T13:41:37.800Z,74.66
2022-12-31T13:44:25.965Z,74.61
2022-12-31T13:46:57.929Z,75.00
2022-12-31T13:49:47.068Z,74.94
2022-12-31T13:52:26.641Z,74.80
2022-12-31T13:55:24.027Z,75.08
2022-12-31T13:58:24.527Z,75.46
2022-12-31T14:01:07.051Z,75.16
2022-12-31T14:04:50.783Z,75.31
2022-12-31T14:07:43.650Z,75.30
2022-12-31T14:10:16.716Z,75.35
2022-12-31T14:12:59.889Z,75.54
2022-12-31T14:15:39.211Z,75.55
2022-12-31T14:18:34.361Z,75.50
2022-12-31T14:21:13.491Z,75.20
2022-12-31T14:24:05.542Z,75.61
2022-12-31T14:26:42.167Z,75.86
2022-12-31T14:29:23.007Z,75.69
2022-12-31T14:31:51.786Z,75.75
2022-12-31T14:34:27.577Z,75.61
2022-12-31T14:37:02.584Z,75.92
2022-12-31T14:39:52.556Z,75.70
2022-12-31T14:43:10.364Z,75.59
2022-12-31T14:46:02.675Z,75.65
2022-12-31T14:48:57.661Z,75.72
2022-12-31T14:51:31.261Z,75.71
2022-12-31T14:53:59.833Z,74.79
2022-12-31T14:56:28.341Z,74.94
2022-12-31T14:59:02.529Z,74.58
2022-12-31T15:01:32.204Z,74.48
2022-12-31T15:04:00.873Z,74.23
2022-12-31T15:06:56.089Z,75.05
2022-12-31T15:09:45.797Z,75.06
2022-12-31T15:12:28.736Z,74.08
2022-12-31T15:15:06.131Z,74.53
2022-12-31T15:18:08.411Z,74.47
2022-12-31T15:21:10.348Z,74.84
2022-12-31T15:23:42.294Z,75.10
2022-12-31T15:26:31.261Z,74.88
2022-12-31T15:29:24.879Z,74.90
2022-12-31T15:31:53.651Z,75.06
2022-12-31T15:34:29.544Z,75.59
2022-12-31T15:37:02.509Z,75.35
2022-12-31T15:39:33.562Z,75.63
2022-12-31T15:42:36.831Z,75.78
2022-12-31T15:44:58.101Z,75.76
2022-12-31T15:47:38.907Z,75.74
2022-12-31T15:50:21.780Z,75.54
2022-12-31T15:53:05.478Z,75.57
2022-12-31T15:55:51.091Z,74.47
2022-12-31T15:58:25.123Z,75.10
2022-12-31T16:01:23.410Z,74.45
2022-12-31T16:04:33.144Z,74.95
2022-12-31T16:07:05.345Z,75.10
2022-12-31T16:09:36.843Z,75.11
2022-12-31T16:12:18.934Z,75.36
2022-12-31T16:14:57.697Z,75.72
2022-12-31T16:17:32.814Z,75.63
2022-12-31T16:20:22.988Z,75.76
2022-12-31T16:23:00.185Z,74.53
2022-12-31T16:25:32.344Z,75.67
2022-12-31T16:28:04.425Z,75.44
2022-12-31T16:30:35.909Z,74.90
2022-12-31T16:33:07.377Z,74.44
2022-12-31T16:35:38.879Z,75.12
2022-12-31T16:38:16.655Z,74.81
2022-12-31T16:41:01.923Z,74.92
2022-12-31T16:43:43.962Z,74.60
2022-12-31T16:46:28.853Z,74.66
2022-12-31T16:49:14.061Z,75.24
2022-12-31T16:51:42.553Z,75.14
2022-12-31T16:54:27.228Z,75.12
2022-12-31T16:56:56.174Z,74.48
2022-12-31T17:00:00.390Z,75.07
2022-12-31T17:03:15.587Z,74.93
2022-12-31T17:06:16.696Z,75.13
2022-12-31T17:08:56.029Z,74.81
2022-12-31T17:11:39.391Z,74.50
2022-12-31T17:14:07.833Z,74.51
2022-12-31T17:16:40.371Z,74.31
2022-12-31T17:19:11.729Z,74.24
2022-12-31T17:21:48.881Z,73.50
2022-12-31T17:24:17.585Z,74.49
2022-12-31T17:26:46.476Z,73.46
2022-12-31T17:29:26.228Z,74.36
2022-12-31T17:32:28.778Z,73.63
2022-12-31T17:34:57.357Z,73.01
2022-12-31T17:37:29.994Z,74.19
2022-12-31T17:40:32.202Z,73.99
2022-12-31T17:42:50.648Z,73.77
2022-12-31T17:45:23.452Z,73.51
2022-12-31T17:47:55.692Z,72.94
2022-12-31T17:50:27.781Z,73.15
2022-12-31T17:53:09.860Z,73.17
2022-12-31T17:55:38.668Z,73.33
2022-12-31T17:58:08.105Z,72.96
2022-12-31T18:00:38.665Z,73.39
2022-12-31T18:03:07.250Z,72.94
2022-12-31T18:05:36.866Z,72.67
2022-12-31T18:08:05.698Z,73.30
2022-12-31T18:10:38.834Z,73.95
2022-12-31T18:13:15.479Z,73.28
2022-12-31T18:15:43.936Z,73.73
2022-12-31T18:18:32.709Z,73.70
2022-12-31T18:21:34.542Z,73.00
2022-12-31T18:26:34.629Z,74.47
2022-12-31T18:29:16.884Z,74.58
2022-12-31T18:31:49.004Z,74.92
2022-12-31T18:34:18.403Z,74.32
2022-12-31T18:36:47.064Z,74.35
2022-12-31T18:39:15.587Z,74.15
2022-12-31T18:41:47.006Z,74.48
2022-12-31T18:44:16.830Z,74.34
2022-12-31T18:46:45.254Z,72.91
2022-12-31T18:49:14.052Z,73.34
2022-12-31T18:51:42.569Z,73.66
2022-12-31T18:54:13.926Z,72.79
2022-12-31T18:56:47.178Z,71.96
2022-12-31T18:59:16.906Z,71.85
2022-12-31T19:01:45.465Z,71.64
2022-12-31T19:04:27.603Z,71.31
2022-12-31T19:06:57.215Z,70.42
2022-12-31T19:12:15.906Z,70.59
2022-12-31T19:14:45.567Z,70.04
2022-12-31T19:17:14.329Z,69.69
2022-12-31T19:19:42.799Z,69.49
2022-12-31T19:22:16.492Z,69.47
2022-12-31T19:24:44.943Z,69.40
2022-12-31T19:27:13.542Z,69.51
2022-12-31T19:29:42.245Z,69.83
2022-12-31T19:32:10.747Z,69.17
2022-12-31T19:34:39.314Z,69.97
2022-12-31T19:37:07.801Z,69.37
2022-12-31T19:39:36.257Z,69.12
2022-12-31T19:42:04.863Z,69.36
2022-12-31T19:44:33.344Z,68.79
2022-12-31T19:47:01.858Z,68.68
2022-12-31T19:49:30.402Z,68.73
2022-12-31T19:51:59.063Z,68.56
2022-12-31T19:54:27.609Z,68.51
2022-12-31T19:56:56.078Z,68.47
2022-12-31T19:59:24.540Z,68.44
2022-12-31T20:01:53.112Z,68.09
2022-12-31T20:04:21.689Z,68.33
2022-12-31T20:06:50.226Z,67.84
2022-12-31T20:09:18.663Z,67.94
2022-12-31T20:11:47.232Z,67.59
2022-12-31T20:14:15.850Z,67.64
2022-12-31T20:16:44.512Z,67.11
2022-12-31T20:19:13.017Z,67.20
2022-12-31T20:21:41.991Z,66.96
2022-12-31T20:24:10.519Z,67.15
2022-12-31T20:26:39.087Z,67.35
2022-12-31T20:29:07.496Z,67.12
2022-12-31T20:31:36.035Z,67.33
2022-12-31T20:34:04.481Z,67.69
2022-12-31T20:36:32.642Z,67.25
2022-12-31T20:39:01.144Z,67.25
2022-12-31T20:41:32.084Z,67.11
2022-12-31T20:44:01.342Z,67.28
2022-12-31T20:46:31.811Z,66.84
2022-12-31T20:49:02.587Z,67.05
2022-12-31T20:51:33.773Z,67.16
2022-12-31T20:54:06.165Z,67.23
2022-12-31T20:56:38.996Z,67.11
2022-12-31T20:59:08.982Z,67.49
2022-12-31T21:02:11.769Z,67.71
2022-12-31T21:04:27.216Z,67.21
2022-12-31T21:06:55.828Z,67.50
2022-12-31T21:09:24.374Z,67.17
2022-12-31T21:12:10.312Z,67.17
2022-12-31T21:14:44.509Z,67.70
2022-12-31T21:17:13.447Z,67.58
2022-12-31T21:19:41.949Z,67.51
2022-12-31T21:22:10.486Z,67.65
2022-12-31T21:24:39.445Z,67.25
2022-12-31T21:27:08.440Z,67.70
2022-12-31T21:29:55.722Z,67.76
2022-12-31T21:32:26.219Z,67.62
2022-12-31T21:35:31.180Z,67.36
2022-12-31T21:37:59.324Z,67.10
2022-12-31T21:40:29.315Z,66.92
2022-12-31T21:42:58.022Z,67.11
2022-12-31T21:45:26.319Z,66.65
2022-12-31T21:48:12.242Z,66.33
2022-12-31T21:50:40.658Z,66.63
2022-12-31T21:53:09.203Z,66.04
2022-12-31T21:55:57.315Z,65.98
2022-12-31T21:58:27.639Z,65.70
2022-12-31T22:01:15.574Z,65.71
2022-12-31T22:03:45.632Z,65.63
2022-12-31T22:06:20.677Z,65.37
2022-12-31T22:08:52.877Z,64.93
2022-12-31T22:11:23.323Z,65.15
2022-12-31T22:13:52.707Z,65.15
2022-12-31T22:16:23.366Z,64.51
2022-12-31T22:18:51.981Z,64.04
2022-12-31T22:21:25.446Z,63.79
2022-12-31T22:23:56.487Z,63.85
2022-12-31T22:26:28.849Z,63.38
2022-12-31T22:28:59.604Z,63.12
2022-12-31T22:31:31.121Z,62.98
2022-12-31T22:34:00.152Z,62.15
2022-12-31T22:36:28.710Z,62.32
2022-12-31T22:38:58.749Z,62.56
2022-12-31T22:41:29.172Z,62.85
2022-12-31T22:44:04.216Z,63.17
2022-12-31T22:46:34.152Z,63.33
2022-12-31T22:49:06.140Z,63.25
2022-12-31T22:51:56.360Z,63.20
2022-12-31T22:54:23.467Z,63.41
2022-12-31T22:56:52.050Z,62.45
2022-12-31T22:59:20.509Z,62.90
2022-12-31T23:01:49.655Z,62.32
2022-12-31T23:04:18.514Z,62.12
2022-12-31T23:06:47.379Z,61.84
2022-12-31T23:09:35.856Z,61.65
2022-12-31T23:12:06.963Z,61.61
2022-12-31T23:14:53.303Z,62.52
2022-12-31T23:17:45.095Z,62.78
2022-12-31T23:20:38.562Z,62.16
2022-12-31T23:23:12.932Z,62.47
2022-12-31T23:25:48.294Z,62.93
2022-12-31T23:28:21.297Z,63.07
2022-12-31T23:30:51.291Z,62.59
2022-12-31T23:33:23.732Z,63.30
2022-12-31T23:35:52.586Z,63.03
2022-12-31T23:38:21.126Z,63.29
2022-12-31T23:40:49.711Z,63.53
2022-12-31T23:43:23.563Z,63.60
2022-12-31T23:45:52.658Z,63.47
2022-12-31T23:48:21.102Z,63.58
2022-12-31T23:50:54.458Z,63.81
2022-12-31T23:53:26.701Z,63.68
2022-12-31T23:55:55.461Z,64.05
2022-12-31T23:58:24.007Z,63.53
